Time;durP1;ratioP1;P1;durP2;ratioP2;P2;SDS_P1;SDS_P2;PMS_P1;PMS_P2;Temp;Humidity;BMP_temperature;BMP_pressure;BME280_temperature;BME280_humidity;BME280_pressure;Samples;Min_cycle;Max_cycle;Signal;HPM_P1;HPM_P2
2023/07/29 00:00:45;;;;;;;6.70;2.90;;;18.50;99.90;;;;;;4998003;28;20037;-71
2023/07/29 00:03:10;;;;;;;3.50;2.90;;;18.50;99.90;;;;;;4998039;28;20265;-71
2023/07/29 00:05:41;;;;;;;4.35;2.65;;;18.40;99.90;;;;;;4997803;28;20117;-71
2023/07/29 00:08:07;;;;;;;6.03;3.17;;;18.50;99.90;;;;;;4998102;28;20112;-71
2023/07/29 00:10:35;;;;;;;7.28;3.03;;;18.50;99.90;;;;;;4998074;28;20093;-71
2023/07/29 00:13:00;;;;;;;5.43;2.85;;;18.50;99.90;;;;;;4997761;28;20153;-71
2023/07/29 00:15:26;;;;;;;7.28;2.90;;;18.60;99.90;;;;;;4997749;28;20053;-71
2023/07/29 00:17:52;;;;;;;5.30;2.75;;;18.60;99.90;;;;;;4997450;28;20049;-71
2023/07/29 00:20:17;;;;;;;5.43;4.50;;;18.60;99.90;;;;;;4997304;28;20113;-80
2023/07/29 00:22:43;;;;;;;9.38;4.00;;;18.60;99.90;;;;;;4997173;28;20026;-72
2023/07/29 00:25:08;;;;;;;8.18;5.25;;;18.70;99.90;;;;;;4997419;28;20027;-71
2023/07/29 00:27:34;;;;;;;12.90;6.45;;;18.80;99.90;;;;;;4997238;28;20073;-80
2023/07/29 00:30:00;;;;;;;9.77;6.40;;;18.80;99.90;;;;;;4997365;28;20027;-69
2023/07/29 00:32:29;;;;;;;12.10;7.35;;;18.90;99.90;;;;;;4998120;28;20022;-72
2023/07/29 00:34:54;;;;;;;9.02;7.45;;;18.90;99.90;;;;;;4997119;28;20022;-71
2023/07/29 00:37:20;;;;;;;12.10;8.48;;;18.90;99.90;;;;;;4997091;28;20053;-80
2023/07/29 00:39:46;;;;;;;12.70;7.40;;;18.90;99.90;;;;;;4997107;28;20049;-74
2023/07/29 00:42:11;;;;;;;11.70;9.20;;;18.80;99.90;;;;;;4996984;28;20026;-80
2023/07/29 00:44:37;;;;;;;14.60;8.55;;;18.90;99.90;;;;;;4997241;28;20022;-73
2023/07/29 00:47:04;;;;;;;17.45;9.23;;;18.80;99.90;;;;;;4996915;28;20019;-69
2023/07/29 00:49:30;;;;;;;11.57;8.45;;;18.80;99.90;;;;;;4996707;28;20121;-73
2023/07/29 00:51:56;;;;;;;12.70;8.43;;;18.80;99.90;;;;;;4997241;28;20121;-72
2023/07/29 00:54:22;;;;;;;11.70;8.27;;;18.80;99.90;;;;;;4996862;28;20054;-72
2023/07/29 00:56:47;;;;;;;12.32;8.15;;;18.80;99.90;;;;;;4997009;28;20030;-72
2023/07/29 00:59:13;;;;;;;19.70;9.05;;;18.80;99.90;;;;;;4996728;28;20023;-73
2023/07/29 01:01:39;;;;;;;12.15;8.63;;;18.70;99.90;;;;;;4997009;28;20089;-72
2023/07/29 01:04:04;;;;;;;13.55;8.48;;;18.70;99.90;;;;;;4996973;28;20030;-73
2023/07/29 01:06:57;;;;;;;19.88;8.63;;;18.70;99.90;;;;;;4996886;28;20030;-73
2023/07/29 01:09:28;;;;;;;14.57;9.05;;;18.70;99.90;;;;;;4996545;28;20053;-73
2023/07/29 01:12:21;;;;;;;13.27;8.20;;;18.80;99.90;;;;;;4996661;28;20022;-73
2023/07/29 01:15:04;;;;;;;12.82;9.57;;;18.80;99.90;;;;;;4997184;28;20031;-73
2023/07/29 01:17:43;;;;;;;10.00;8.02;;;18.80;99.90;;;;;;4996542;28;20109;-73
2023/07/29 01:20:13;;;;;;;16.33;8.27;;;18.80;99.90;;;;;;4997282;28;20022;-73
2023/07/29 01:22:40;;;;;;;13.13;9.05;;;18.80;99.90;;;;;;4996769;28;20022;-73
2023/07/29 01:25:06;;;;;;;20.08;9.23;;;18.90;99.90;;;;;;4996875;28;20027;-73
2023/07/29 01:27:31;;;;;;;11.48;8.23;;;18.80;99.90;;;;;;4997076;28;20066;-73
2023/07/29 01:29:58;;;;;;;11.68;8.23;;;18.80;99.90;;;;;;4996651;28;20014;-73
2023/07/29 01:32:39;;;;;;;14.18;7.88;;;18.70;99.90;;;;;;4996467;28;20022;-73
2023/07/29 01:35:31;;;;;;;14.10;7.65;;;18.70;99.90;;;;;;4997022;28;20027;-73
2023/07/29 01:38:04;;;;;;;11.60;7.93;;;18.70;99.90;;;;;;4996922;28;20110;-73
2023/07/29 01:40:30;;;;;;;10.38;7.18;;;18.70;99.90;;;;;;4999291;28;20069;-73
2023/07/29 01:42:56;;;;;;;9.90;7.22;;;18.70;99.90;;;;;;5000529;28;20026;-73
2023/07/29 01:45:27;;;;;;;9.23;6.68;;;18.60;99.90;;;;;;5000412;28;20057;-73
2023/07/29 01:47:53;;;;;;;7.72;6.00;;;18.60;99.90;;;;;;5000639;28;20126;-73
2023/07/29 01:50:19;;;;;;;8.20;6.70;;;18.70;99.90;;;;;;5001003;28;20155;-76
2023/07/29 01:52:44;;;;;;;10.05;7.05;;;18.70;99.90;;;;;;4999929;28;20026;-73
2023/07/29 01:55:11;;;;;;;8.30;6.97;;;18.60;99.90;;;;;;5000353;28;20023;-73
2023/07/29 01:57:36;;;;;;;13.00;8.52;;;18.70;99.90;;;;;;5000955;28;20080;-73
2023/07/29 02:00:03;;;;;;;10.45;7.38;;;18.70;99.90;;;;;;5000231;28;20026;-73
2023/07/29 02:02:29;;;;;;;10.98;7.32;;;18.60;99.90;;;;;;4999907;28;20030;-73
2023/07/29 02:04:55;;;;;;;8.65;6.90;;;18.60;99.90;;;;;;4999961;28;20037;-73
2023/07/29 02:07:21;;;;;;;10.50;8.15;;;18.60;99.90;;;;;;5000607;28;20120;-73
2023/07/29 02:09:46;;;;;;;11.13;8.10;;;18.60;99.90;;;;;;4999818;28;20057;-73
2023/07/29 02:12:12;;;;;;;9.95;7.57;;;18.60;99.90;;;;;;4999944;28;20026;-73
2023/07/29 02:14:38;;;;;;;9.55;7.75;;;18.60;99.90;;;;;;4999667;28;20035;-72
2023/07/29 02:17:04;;;;;;;14.43;8.27;;;18.70;99.90;;;;;;5000241;28;20116;-72
2023/07/29 02:19:29;;;;;;;12.52;8.50;;;18.80;99.90;;;;;;4999560;28;20026;-72
2023/07/29 02:21:55;;;;;;;11.50;8.43;;;18.80;99.90;;;;;;4999438;28;20109;-68
2023/07/29 02:24:20;;;;;;;11.45;8.45;;;18.80;99.90;;;;;;4999905;28;20056;-68
2023/07/29 02:26:46;;;;;;;10.40;7.70;;;18.80;99.90;;;;;;4999328;28;20026;-69
2023/07/29 02:29:11;;;;;;;16.02;9.20;;;18.80;99.90;;;;;;5000116;28;20034;-68
2023/07/29 02:31:38;;;;;;;13.10;8.30;;;18.90;99.90;;;;;;4999617;28;20022;-68
2023/07/29 02:34:04;;;;;;;14.00;9.43;;;19.00;99.90;;;;;;4999080;28;20026;-69
2023/07/29 02:36:29;;;;;;;12.23;8.63;;;18.90;99.90;;;;;;4999274;28;20026;-69
2023/07/29 02:38:55;;;;;;;13.68;9.00;;;19.10;99.90;;;;;;4999997;28;20065;-69
2023/07/29 02:41:20;;;;;;;15.95;10.27;;;19.10;99.90;;;;;;4999228;28;20029;-69
2023/07/29 02:43:50;;;;;;;15.93;9.68;;;19.00;99.90;;;;;;4998969;28;20133;-68
2023/07/29 02:46:16;;;;;;;17.92;10.73;;;18.80;99.90;;;;;;4998970;28;20030;-68
2023/07/29 02:48:44;;;;;;;16.50;10.13;;;18.80;99.90;;;;;;4999053;28;20037;-68
2023/07/29 02:51:09;;;;;;;17.90;10.07;;;18.80;99.90;;;;;;4998173;28;20080;-68
2023/07/29 02:53:36;;;;;;;14.52;10.23;;;18.90;99.90;;;;;;4999744;28;20023;-80
2023/07/29 02:56:02;;;;;;;17.92;11.85;;;19.00;99.90;;;;;;4998841;28;20023;-80
2023/07/29 02:58:29;;;;;;;15.15;10.57;;;18.90;99.90;;;;;;4998876;28;20022;-80
2023/07/29 03:01:01;;;;;;;19.33;10.88;;;18.90;99.90;;;;;;4999106;28;20026;-80
2023/07/29 03:03:27;;;;;;;18.40;11.52;;;19.00;99.90;;;;;;4999063;28;20054;-80
2023/07/29 03:06:02;;;;;;;17.52;11.25;;;19.00;99.90;;;;;;4999751;28;20037;-80
2023/07/29 03:08:28;;;;;;;15.85;10.02;;;19.00;99.90;;;;;;4999281;28;20030;-80
2023/07/29 03:10:54;;;;;;;17.58;10.45;;;19.00;99.90;;;;;;4998960;28;20045;-80
2023/07/29 03:13:20;;;;;;;20.60;11.50;;;19.00;99.90;;;;;;4998654;28;20030;-80
2023/07/29 03:15:46;;;;;;;14.40;9.77;;;18.90;99.90;;;;;;4998924;28;20113;-80
2023/07/29 03:18:11;;;;;;;15.32;9.80;;;18.90;99.90;;;;;;4998591;28;20057;-80
2023/07/29 03:20:37;;;;;;;14.88;9.45;;;19.10;99.90;;;;;;4998415;28;20022;-80
2023/07/29 03:23:02;;;;;;;16.10;9.20;;;19.00;99.90;;;;;;4998873;28;20073;-80
2023/07/29 03:25:28;;;;;;;13.35;8.20;;;18.90;99.90;;;;;;4998141;28;20033;-71
2023/07/29 03:27:54;;;;;;;11.68;8.23;;;18.90;99.90;;;;;;4998979;28;20053;-71
2023/07/29 03:30:21;;;;;;;14.35;9.07;;;19.00;99.90;;;;;;4998265;28;20061;-69
2023/07/29 03:32:47;;;;;;;13.32;8.48;;;19.00;99.90;;;;;;4998423;28;20026;-68
2023/07/29 03:35:13;;;;;;;12.88;8.82;;;19.00;99.90;;;;;;4998440;28;20023;-69
2023/07/29 03:37:39;;;;;;;9.90;7.85;;;18.90;99.90;;;;;;4998379;28;20033;-69
2023/07/29 03:40:06;;;;;;;11.88;7.72;;;18.90;99.90;;;;;;4998123;28;20030;-69
2023/07/29 03:42:31;;;;;;;13.05;8.20;;;19.00;99.90;;;;;;4998225;28;20026;-69
2023/07/29 03:44:57;;;;;;;10.57;7.18;;;19.10;99.90;;;;;;4998141;28;20041;-69
2023/07/29 03:47:22;;;;;;;10.23;6.22;;;19.10;99.90;;;;;;4998118;28;20026;-69
2023/07/29 03:49:48;;;;;;;10.02;7.25;;;19.00;99.90;;;;;;4998369;28;20031;-69
2023/07/29 03:52:14;;;;;;;11.30;7.35;;;19.10;99.90;;;;;;4997886;28;20023;-69
2023/07/29 03:54:40;;;;;;;12.68;7.60;;;19.10;99.90;;;;;;4997882;28;20085;-69
2023/07/29 03:57:05;;;;;;;13.10;7.80;;;19.20;99.90;;;;;;4998553;28;20069;-69
2023/07/29 03:59:32;;;;;;;14.40;9.63;;;19.30;99.90;;;;;;4997843;28;20034;-69
2023/07/29 04:01:57;;;;;;;19.58;10.32;;;19.30;99.90;;;;;;4997640;28;20026;-69
2023/07/29 04:04:23;;;;;;;18.45;10.20;;;19.30;99.90;;;;;;4998068;28;20037;-73
2023/07/29 04:06:48;;;;;;;19.83;10.60;;;19.30;99.90;;;;;;4997768;28;20022;-73
2023/07/29 04:09:14;;;;;;;20.40;11.23;;;19.20;99.90;;;;;;4997800;28;20065;-73
2023/07/29 04:11:40;;;;;;;21.63;12.73;;;19.20;99.90;;;;;;4997419;28;20023;-73
2023/07/29 04:14:05;;;;;;;20.75;11.88;;;19.20;99.90;;;;;;4997539;28;20032;-73
2023/07/29 04:16:31;;;;;;;25.00;14.27;;;19.30;99.90;;;;;;4997801;28;20275;-73
2023/07/29 04:18:56;;;;;;;25.20;13.73;;;19.20;99.90;;;;;;4997534;28;20066;-73
2023/07/29 04:21:22;;;;;;;23.85;14.75;;;19.30;99.90;;;;;;4997363;28;20026;-73
2023/07/29 04:23:47;;;;;;;23.42;14.35;;;19.20;99.90;;;;;;4997224;28;20084;-73
2023/07/29 04:26:13;;;;;;;23.15;13.57;;;19.30;99.90;;;;;;4997953;28;20109;-73
2023/07/29 04:28:38;;;;;;;23.42;13.85;;;19.30;99.90;;;;;;4997965;28;20061;-73
2023/07/29 04:31:04;;;;;;;22.70;13.70;;;19.30;99.90;;;;;;4997180;28;20018;-73
2023/07/29 04:33:30;;;;;;;26.08;15.55;;;19.30;99.90;;;;;;4997104;28;20033;-73
2023/07/29 04:35:56;;;;;;;26.17;15.32;;;19.30;99.90;;;;;;4997366;28;20014;-73
2023/07/29 04:38:22;;;;;;;25.20;14.75;;;19.30;99.90;;;;;;4997591;28;20041;-73
2023/07/29 04:40:49;;;;;;;23.70;14.20;;;19.40;99.90;;;;;;4997453;28;20070;-73
2023/07/29 04:43:14;;;;;;;25.25;14.90;;;19.40;99.90;;;;;;4996963;28;20037;-73
2023/07/29 04:45:46;;;;;;;22.13;14.88;;;19.40;99.90;;;;;;4996850;28;20030;-73
2023/07/29 04:48:11;;;;;;;23.17;13.10;;;19.30;99.90;;;;;;4997220;28;20102;-73
2023/07/29 04:50:37;;;;;;;20.17;12.13;;;19.30;99.90;;;;;;4996873;28;20026;-73
2023/07/29 04:53:02;;;;;;;19.60;12.43;;;19.30;99.90;;;;;;4996972;28;20026;-73
2023/07/29 04:55:28;;;;;;;19.98;12.50;;;19.40;99.90;;;;;;4997007;28;20023;-73
2023/07/29 04:57:53;;;;;;;18.05;11.63;;;19.40;99.90;;;;;;4996956;28;20034;-73
2023/07/29 05:00:19;;;;;;;15.63;10.65;;;19.50;99.90;;;;;;4997207;28;20087;-73
2023/07/29 05:02:44;;;;;;;15.27;10.52;;;19.40;99.90;;;;;;4997663;28;20029;-75
2023/07/29 05:05:10;;;;;;;16.02;10.82;;;19.40;99.90;;;;;;4996699;28;20033;-73
2023/07/29 05:07:36;;;;;;;15.60;9.25;;;19.40;99.90;;;;;;4997087;28;20030;-73
2023/07/29 05:10:01;;;;;;;14.43;9.23;;;19.30;99.90;;;;;;4997278;28;20027;-73
2023/07/29 05:12:27;;;;;;;13.60;9.20;;;19.30;99.90;;;;;;4996938;28;20022;-73
2023/07/29 05:14:52;;;;;;;13.73;9.25;;;19.40;99.90;;;;;;5023613;23;20034;-72
2023/07/29 05:17:18;;;;;;;10.73;7.95;;;19.40;99.90;;;;;;5003665;28;20121;-72
2023/07/29 05:19:43;;;;;;;13.27;9.13;;;19.50;99.90;;;;;;5003067;28;20041;-72
2023/07/29 05:22:10;;;;;;;11.13;8.10;;;19.40;99.90;;;;;;5003250;28;20037;-72
2023/07/29 05:24:35;;;;;;;11.02;8.02;;;19.50;99.90;;;;;;5003172;28;20033;-72
2023/07/29 05:27:01;;;;;;;10.13;7.32;;;19.50;99.90;;;;;;5003609;28;20030;-72
2023/07/29 05:29:26;;;;;;;9.68;7.15;;;19.50;99.90;;;;;;5002921;28;20030;-72
2023/07/29 05:31:52;;;;;;;10.30;7.15;;;19.50;99.90;;;;;;5003034;28;20048;-72
2023/07/29 05:34:17;;;;;;;14.50;8.32;;;19.50;99.90;;;;;;5003684;28;20026;-72
2023/07/29 05:36:43;;;;;;;12.25;7.70;;;19.40;99.90;;;;;;5002931;28;20018;-72
2023/07/29 05:39:08;;;;;;;12.98;7.85;;;19.30;99.90;;;;;;5003632;28;20018;-72
2023/07/29 05:41:34;;;;;;;10.20;8.02;;;19.30;99.90;;;;;;5003722;28;20030;-72
2023/07/29 05:43:59;;;;;;;12.30;8.45;;;19.40;99.90;;;;;;5002936;28;20031;-72
2023/07/29 05:46:25;;;;;;;9.73;7.88;;;19.30;99.90;;;;;;5002777;28;20022;-72
2023/07/29 05:48:50;;;;;;;9.98;7.50;;;19.20;99.90;;;;;;5002639;28;20030;-72
2023/07/29 05:51:16;;;;;;;13.73;6.68;;;19.30;99.90;;;;;;5002937;28;20029;-72
2023/07/29 05:53:41;;;;;;;8.77;6.75;;;19.40;99.90;;;;;;5002949;28;20026;-72
2023/07/29 05:56:07;;;;;;;12.15;6.85;;;19.30;99.90;;;;;;5003571;28;20038;-72
2023/07/29 05:58:33;;;;;;;12.90;7.10;;;19.30;99.90;;;;;;5003534;28;20018;-72
2023/07/29 06:00:58;;;;;;;8.63;6.65;;;19.30;99.90;;;;;;5002979;28;20019;-72
2023/07/29 06:03:24;;;;;;;9.40;6.82;;;19.30;99.90;;;;;;5003072;28;20032;-72
2023/07/29 06:05:50;;;;;;;12.75;7.47;;;19.30;99.90;;;;;;5002742;28;20030;-72
2023/07/29 06:08:15;;;;;;;9.63;6.53;;;19.30;99.90;;;;;;5003545;28;20022;-72
2023/07/29 06:10:41;;;;;;;12.75;7.03;;;19.30;99.90;;;;;;5002726;28;20045;-72
2023/07/29 06:13:06;;;;;;;10.27;7.70;;;19.30;99.90;;;;;;5003050;28;20022;-72
2023/07/29 06:15:32;;;;;;;8.15;5.97;;;19.30;99.90;;;;;;5002567;28;20034;-72
2023/07/29 06:17:58;;;;;;;8.27;5.88;;;19.40;99.90;;;;;;5002782;28;20022;-72
2023/07/29 06:20:23;;;;;;;8.50;5.63;;;19.40;99.90;;;;;;5003282;28;20026;-72
2023/07/29 06:22:49;;;;;;;7.10;5.78;;;19.50;99.90;;;;;;5002779;28;20037;-72
2023/07/29 06:25:14;;;;;;;9.85;7.05;;;19.60;99.90;;;;;;5002455;28;20030;-72
2023/07/29 06:27:40;;;;;;;8.45;5.78;;;19.60;99.90;;;;;;4998540;28;20024;-72
2023/07/29 06:30:06;;;;;;;9.38;6.75;;;19.60;99.90;;;;;;5000258;28;20061;-72
2023/07/29 06:32:32;;;;;;;8.30;6.35;;;19.60;99.90;;;;;;5000073;28;20026;-72
2023/07/29 06:34:57;;;;;;;7.47;5.45;;;19.70;99.90;;;;;;4999131;28;20030;-72
2023/07/29 06:37:23;;;;;;;8.57;5.18;;;19.70;99.90;;;;;;4999653;28;20113;-72
2023/07/29 06:39:48;;;;;;;7.95;5.60;;;19.70;99.90;;;;;;4999965;28;20084;-72
2023/07/29 06:42:14;;;;;;;7.60;5.43;;;19.70;99.90;;;;;;4999259;28;20018;-72
2023/07/29 06:44:40;;;;;;;7.72;6.18;;;19.70;99.90;;;;;;4998970;28;20045;-72
2023/07/29 06:47:06;;;;;;;9.25;6.25;;;19.80;99.90;;;;;;4999293;28;20027;-72
2023/07/29 06:49:31;;;;;;;10.02;6.75;;;19.70;99.90;;;;;;4999938;28;20032;-72
2023/07/29 06:51:57;;;;;;;10.00;6.05;;;19.70;99.90;;;;;;4999695;28;20050;-72
2023/07/29 06:54:26;;;;;;;11.80;6.55;;;19.60;99.90;;;;;;4999225;28;20027;-72
2023/07/29 06:56:52;;;;;;;7.32;5.50;;;19.50;99.90;;;;;;4999120;28;20034;-72
2023/07/29 06:59:17;;;;;;;9.32;6.95;;;19.50;99.90;;;;;;4999595;28;20023;-72
2023/07/29 07:01:43;;;;;;;8.65;6.05;;;19.40;99.90;;;;;;4999461;28;20073;-72
2023/07/29 07:04:09;;;;;;;10.23;6.20;;;19.40;99.90;;;;;;4999537;28;20077;-72
2023/07/29 07:06:34;;;;;;;10.27;6.15;;;19.40;99.90;;;;;;4999870;28;20037;-71
2023/07/29 07:09:00;;;;;;;8.40;6.22;;;19.30;99.90;;;;;;4998560;28;20032;-71
2023/07/29 07:11:25;;;;;;;8.18;5.90;;;19.40;99.90;;;;;;4999643;28;20117;-72
2023/07/29 07:13:51;;;;;;;12.02;7.53;;;19.70;99.90;;;;;;4998734;28;20029;-72
2023/07/29 07:16:16;;;;;;;7.25;5.82;;;19.60;99.90;;;;;;4999703;28;20114;-72
2023/07/29 07:18:42;;;;;;;10.27;5.20;;;19.70;99.90;;;;;;4998804;28;20093;-72
2023/07/29 07:21:07;;;;;;;8.85;5.63;;;19.70;99.90;;;;;;4998862;28;20077;-72
2023/07/29 07:23:33;;;;;;;9.85;6.30;;;19.80;99.90;;;;;;4998427;28;20033;-72
2023/07/29 07:25:58;;;;;;;10.48;6.03;;;19.90;99.90;;;;;;4999070;28;20065;-72
2023/07/29 07:28:24;;;;;;;7.75;6.18;;;20.00;99.90;;;;;;4998622;28;20026;-72
2023/07/29 07:30:50;;;;;;;8.27;6.00;;;20.10;99.90;;;;;;4998596;28;20029;-72
2023/07/29 07:33:15;;;;;;;13.23;7.43;;;20.10;99.90;;;;;;4998499;28;20029;-72
2023/07/29 07:35:42;;;;;;;10.48;7.47;;;20.00;99.90;;;;;;4998997;28;20030;-72
2023/07/29 07:38:09;;;;;;;8.77;6.65;;;19.90;99.90;;;;;;4998594;28;20030;-72
2023/07/29 07:40:35;;;;;;;11.40;7.30;;;19.90;99.90;;;;;;4998319;28;20177;-72
2023/07/29 07:43:01;;;;;;;13.40;6.50;;;19.80;99.90;;;;;;4998021;28;20089;-72
2023/07/29 07:45:26;;;;;;;7.63;5.78;;;19.80;99.90;;;;;;4998399;28;20026;-72
2023/07/29 07:47:55;;;;;;;9.18;6.20;;;19.90;99.90;;;;;;4999057;28;20034;-72
2023/07/29 07:50:21;;;;;;;7.82;5.30;;;20.10;99.90;;;;;;4998606;28;20023;-72
2023/07/29 07:52:47;;;;;;;7.07;5.70;;;20.10;99.90;;;;;;4998201;28;20045;-72
2023/07/29 07:55:12;;;;;;;7.20;5.28;;;20.10;99.90;;;;;;4998053;28;20037;-72
2023/07/29 07:57:38;;;;;;;6.68;5.57;;;20.00;99.90;;;;;;4997952;28;20105;-72
2023/07/29 08:00:04;;;;;;;7.00;5.15;;;20.10;99.90;;;;;;4997982;28;20025;-72
2023/07/29 08:02:30;;;;;;;7.00;4.93;;;20.20;99.90;;;;;;4997922;28;20050;-72
2023/07/29 08:04:55;;;;;;;4.65;4.20;;;20.30;99.90;;;;;;4997556;28;20019;-72
2023/07/29 08:07:21;;;;;;;5.97;4.25;;;20.40;99.90;;;;;;4998595;28;20030;-72
2023/07/29 08:09:46;;;;;;;11.02;4.95;;;20.40;99.90;;;;;;4997825;28;20034;-72
2023/07/29 08:12:12;;;;;;;9.05;5.45;;;20.30;99.90;;;;;;4997414;28;20110;-72
2023/07/29 08:14:38;;;;;;;7.00;4.88;;;20.10;99.90;;;;;;4997452;28;20117;-72
2023/07/29 08:17:03;;;;;;;4.85;4.43;;;20.00;99.90;;;;;;4998314;28;20022;-72
2023/07/29 08:19:29;;;;;;;5.28;2.85;;;20.00;99.90;;;;;;4997659;28;20026;-72
2023/07/29 08:21:54;;;;;;;2.80;2.47;;;20.20;99.90;;;;;;4997500;28;20022;-72
2023/07/29 08:24:20;;;;;;;6.13;3.40;;;20.50;99.90;;;;;;4997849;28;20041;-72
2023/07/29 08:26:47;;;;;;;4.18;2.90;;;20.60;99.90;;;;;;4998033;28;20065;-72
2023/07/29 08:29:12;;;;;;;4.60;3.47;;;20.70;99.90;;;;;;4997439;28;20026;-72
2023/07/29 08:31:39;;;;;;;7.63;2.80;;;20.80;99.90;;;;;;4997813;28;20026;-71
2023/07/29 08:34:04;;;;;;;3.97;2.88;;;20.90;99.90;;;;;;4997191;28;20022;-71
2023/07/29 08:36:30;;;;;;;3.33;2.00;;;20.90;99.90;;;;;;4997328;28;20084;-72
2023/07/29 08:38:55;;;;;;;4.95;1.95;;;21.10;99.90;;;;;;4997412;28;20026;-71
2023/07/29 08:41:34;;;;;;;3.45;2.03;;;21.10;99.90;;;;;;4997825;28;20027;-71
2023/07/29 08:44:23;;;;;;;3.65;2.08;;;21.20;99.90;;;;;;4997776;28;20030;-72
2023/07/29 08:46:48;;;;;;;2.65;1.60;;;21.30;99.90;;;;;;4996820;28;20097;-71
2023/07/29 08:49:15;;;;;;;9.20;1.98;;;21.40;99.90;;;;;;4996103;28;20023;-72
2023/07/29 08:51:44;;;;;;;2.97;2.35;;;21.50;99.90;;;;;;4997238;28;20023;-71
2023/07/29 08:54:10;;;;;;;3.10;2.03;;;21.60;99.90;;;;;;4997012;28;20030;-72
2023/07/29 08:56:36;;;;;;;2.08;1.60;;;21.60;99.90;;;;;;4997535;28;20029;-71
2023/07/29 08:59:04;;;;;;;4.32;1.55;;;21.70;99.90;;;;;;4996778;28;20037;-71
2023/07/29 09:01:30;;;;;;;3.47;1.67;;;21.60;99.90;;;;;;4997151;28;20033;-72
2023/07/29 09:03:56;;;;;;;1.98;1.50;;;21.70;99.90;;;;;;4996995;28;20030;-72
2023/07/29 09:06:23;;;;;;;2.60;1.60;;;21.90;99.90;;;;;;4996681;28;20026;-73
2023/07/29 09:08:50;;;;;;;2.42;1.67;;;21.90;99.90;;;;;;4997326;28;20026;-73
2023/07/29 09:11:17;;;;;;;4.00;1.38;;;21.90;99.90;;;;;;4996660;28;20027;-71
2023/07/29 09:13:43;;;;;;;1.73;1.58;;;22.00;99.90;;;;;;4996457;28;20037;-72
2023/07/29 09:16:09;;;;;;;3.53;1.95;;;22.00;99.90;;;;;;4997501;28;20026;-72
2023/07/29 09:18:35;;;;;;;1.83;1.50;;;22.10;99.90;;;;;;4996613;28;20101;-72
2023/07/29 09:21:01;;;;;;;4.15;1.40;;;22.10;99.90;;;;;;4997028;28;20052;-73
2023/07/29 09:23:27;;;;;;;3.05;2.08;;;22.20;99.90;;;;;;4996560;28;20137;-72
2023/07/29 09:26:01;;;;;;;2.47;1.83;;;22.30;99.90;;;;;;4996831;28;20066;-72
2023/07/29 09:28:33;;;;;;;2.78;1.60;;;22.40;99.90;;;;;;4996402;28;20065;-71
2023/07/29 09:30:59;;;;;;;3.20;1.17;;;22.50;99.90;;;;;;4997058;28;20022;-72
2023/07/29 09:33:28;;;;;;;1.88;1.15;;;22.70;99.90;;;;;;4996663;28;20033;-71
2023/07/29 09:35:54;;;;;;;1.60;1.27;;;22.60;99.90;;;;;;4996439;28;20022;-73
2023/07/29 09:38:27;;;;;;;2.35;1.10;;;22.70;99.90;;;;;;4996654;28;20019;-72
2023/07/29 09:40:55;;;;;;;2.35;1.27;;;22.80;99.90;;;;;;4996303;28;20033;-73
2023/07/29 09:43:26;;;;;;;1.67;1.55;;;23.00;99.90;;;;;;4996665;28;20030;-72
2023/07/29 09:45:52;;;;;;;1.45;1.17;;;23.20;99.90;;;;;;4996349;28;20057;-71
2023/07/29 09:48:22;;;;;;;1.60;1.40;;;23.40;99.90;;;;;;4996554;28;20030;-71
2023/07/29 09:50:48;;;;;;;1.23;1.10;;;23.40;99.90;;;;;;4996350;28;20061;-71
2023/07/29 09:53:14;;;;;;;2.83;1.35;;;23.30;99.90;;;;;;4996568;28;20022;-72
2023/07/29 09:55:45;;;;;;;3.03;1.40;;;23.30;99.90;;;;;;4996556;28;20073;-73
2023/07/29 09:58:11;;;;;;;2.15;1.85;;;23.30;99.90;;;;;;4997025;28;20026;-74
2023/07/29 10:00:38;;;;;;;3.67;1.42;;;23.30;99.90;;;;;;4997492;28;20033;-73
2023/07/29 10:03:04;;;;;;;1.48;1.35;;;23.50;99.90;;;;;;5000013;28;20050;-73
2023/07/29 10:05:30;;;;;;;2.53;1.30;;;23.50;99.90;;;;;;4999903;28;20030;-74
2023/07/29 10:07:56;;;;;;;4.97;1.30;;;23.40;99.90;;;;;;5000599;28;20033;-73
2023/07/29 10:10:22;;;;;;;1.80;1.30;;;23.60;99.90;;;;;;4999706;28;20050;-73
2023/07/29 10:12:49;;;;;;;1.65;1.10;;;23.70;99.90;;;;;;4999637;28;20018;-73
2023/07/29 10:15:15;;;;;;;1.95;1.20;;;23.70;99.90;;;;;;4999909;28;20161;-74
2023/07/29 10:17:41;;;;;;;2.25;1.25;;;23.60;99.90;;;;;;5000024;28;20061;-73
2023/07/29 10:20:09;;;;;;;2.30;1.77;;;23.70;99.90;;;;;;4999751;28;20029;-73
2023/07/29 10:22:41;;;;;;;1.40;1.30;;;23.80;99.90;;;;;;4999732;28;20022;-73
2023/07/29 10:25:17;;;;;;;1.67;1.30;;;24.00;99.90;;;;;;4999674;28;20022;-74
2023/07/29 10:28:00;;;;;;;4.28;1.25;;;24.20;99.90;;;;;;5000568;28;20030;-73
2023/07/29 10:30:28;;;;;;;2.33;1.33;;;24.30;99.90;;;;;;5000166;28;20027;-73
2023/07/29 10:32:57;;;;;;;4.20;1.33;;;24.10;99.90;;;;;;4999568;28;20046;-74
2023/07/29 10:35:22;;;;;;;3.05;1.30;;;24.10;99.90;;;;;;4999620;28;20081;-74
2023/07/29 10:37:50;;;;;;;1.55;1.45;;;24.00;99.90;;;;;;4999758;28;20022;-74
2023/07/29 10:40:17;;;;;;;1.33;1.17;;;24.10;99.90;;;;;;4999954;28;20018;-73
2023/07/29 10:43:03;;;;;;;1.33;1.23;;;24.00;99.90;;;;;;4999574;28;20031;-73
2023/07/29 10:45:40;;;;;;;2.17;1.55;;;24.00;99.90;;;;;;5000033;28;20018;-74
2023/07/29 10:48:34;;;;;;;2.10;1.52;;;23.90;99.90;;;;;;4999767;28;20026;-73
2023/07/29 10:51:22;;;;;;;1.85;1.60;;;24.00;99.90;;;;;;4981819;28;20054;-73
2023/07/29 10:53:48;;;;;;;2.13;1.55;;;23.80;99.90;;;;;;4999786;28;20022;-74
2023/07/29 10:56:34;;;;;;;3.83;1.77;;;23.80;99.90;;;;;;4999280;28;20018;-74
2023/07/29 10:59:19;;;;;;;2.67;2.10;;;23.70;99.90;;;;;;4999784;28;20037;-73
2023/07/29 11:02:00;;;;;;;8.02;1.48;;;23.70;99.90;;;;;;4999135;28;20037;-73
2023/07/29 11:04:27;;;;;;;8.32;1.40;;;23.40;99.90;;;;;;4998879;28;20026;-73
2023/07/29 11:07:07;;;;;;;1.40;0.75;;;22.40;99.90;;;;;;4999530;28;20034;-73
2023/07/29 11:09:48;;;;;;;2.63;0.60;;;21.30;99.90;;;;;;4998994;28;20030;-73
2023/07/29 11:12:36;;;;;;;3.93;0.93;;;20.60;99.90;;;;;;4997971;28;20033;-73
2023/07/29 11:15:28;;;;;;;1.52;0.60;;;20.20;99.90;;;;;;5021725;23;20087;-79
2023/07/29 11:17:59;;;;;;;6.40;1.75;;;20.10;99.90;;;;;;4998852;28;20026;-67
2023/07/29 11:20:26;;;;;;;6.93;2.22;;;20.10;99.90;;;;;;4998732;28;20100;-68
2023/07/29 11:22:53;;;;;;;6.50;1.98;;;20.00;99.90;;;;;;4999048;28;20027;-68
2023/07/29 11:25:20;;;;;;;9.07;2.63;;;19.70;99.90;;;;;;4998267;28;20042;-69
2023/07/29 11:27:46;;;;;;;4.78;1.40;;;19.50;99.90;;;;;;4998685;28;20118;-71
2023/07/29 11:30:15;;;;;;;3.58;1.35;;;19.40;99.90;;;;;;4999571;28;20101;-68
2023/07/29 11:32:42;;;;;;;7.60;1.73;;;19.40;99.90;;;;;;4998343;28;20052;-69
2023/07/29 11:35:15;;;;;;;4.35;2.60;;;19.40;99.90;;;;;;4998214;28;20023;-79
2023/07/29 11:37:44;;;;;;;4.65;1.83;;;19.60;99.90;;;;;;4998113;28;20054;-79
2023/07/29 11:40:13;;;;;;;3.20;1.75;;;19.70;99.90;;;;;;4998176;28;20022;-66
2023/07/29 11:42:38;;;;;;;4.10;2.30;;;19.90;99.90;;;;;;4998366;28;20045;-66
2023/07/29 11:45:06;;;;;;;5.40;3.10;;;20.20;99.90;;;;;;4997976;28;20027;-66
2023/07/29 11:47:35;;;;;;;2.75;2.15;;;20.80;99.90;;;;;;4998069;28;20046;-67
2023/07/29 11:50:01;;;;;;;3.30;2.00;;;21.20;99.90;;;;;;4998581;28;20040;-69
2023/07/29 11:52:28;;;;;;;4.10;2.00;;;21.20;99.90;;;;;;4997944;28;20022;-66
2023/07/29 11:54:53;;;;;;;2.20;1.65;;;21.40;99.90;;;;;;4997775;28;20022;-67
2023/07/29 11:57:20;;;;;;;2.55;1.67;;;22.20;99.90;;;;;;4998157;28;20065;-69
2023/07/29 11:59:46;;;;;;;2.50;1.20;;;22.40;99.90;;;;;;4997690;28;20022;-69
2023/07/29 12:02:14;;;;;;;1.60;1.42;;;22.60;99.90;;;;;;4998550;28;20034;-70
2023/07/29 12:04:40;;;;;;;1.73;1.35;;;23.00;99.90;;;;;;4998011;28;20062;-70
2023/07/29 12:07:07;;;;;;;1.95;1.33;;;23.10;99.90;;;;;;4998785;28;20058;-70
2023/07/29 12:09:34;;;;;;;4.78;1.80;;;23.60;99.90;;;;;;4997512;28;20026;-70
2023/07/29 12:12:01;;;;;;;3.45;1.50;;;23.70;99.90;;;;;;4997689;28;20100;-79
2023/07/29 12:14:28;;;;;;;2.72;1.70;;;24.30;99.90;;;;;;4997592;28;20023;-70
2023/07/29 12:16:54;;;;;;;1.48;1.35;;;25.10;99.90;;;;;;4998180;28;20026;-70
2023/07/29 12:19:22;;;;;;;1.77;1.50;;;25.10;99.90;;;;;;4997653;28;20030;-79
2023/07/29 12:21:49;;;;;;;5.60;1.60;;;25.00;99.90;;;;;;4998044;28;20030;-79
2023/07/29 12:24:14;;;;;;;3.65;1.60;;;25.10;99.90;;;;;;4997028;28;20030;-78
2023/07/29 12:26:41;;;;;;;7.38;1.80;;;25.10;99.90;;;;;;4997588;28;20022;-67
2023/07/29 12:29:19;;;;;;;2.33;1.63;;;25.30;99.90;;;;;;4997421;28;20034;-78
2023/07/29 12:31:45;;;;;;;2.05;1.50;;;25.60;99.90;;;;;;4997404;28;20033;-79
2023/07/29 12:34:20;;;;;;;1.88;1.35;;;25.80;99.90;;;;;;4997837;28;20085;-78
2023/07/29 12:36:47;;;;;;;2.80;1.50;;;26.30;99.90;;;;;;4997162;28;20034;-70
2023/07/29 12:39:24;;;;;;;3.13;1.38;;;27.70;99.90;;;;;;4997295;28;20081;-78
2023/07/29 12:41:51;;;;;;;3.35;1.65;;;27.40;99.90;;;;;;4997873;28;20029;-67